Time;durP1;ratioP1;P1;durP2;ratioP2;P2;SDS_P1;SDS_P2;PMS_P1;PMS_P2;Temp;Humidity;BMP_temperature;BMP_pressure;BME280_temperature;BME280_humidity;BME280_pressure;Samples;Min_cycle;Max_cycle;Signal;HPM_P1;HPM_P2
2021/10/11 00:00:52;;;;;;;67.78;40.50;;;;;;;;;;5026239;28;20337;-50
2021/10/11 00:03:18;;;;;;;43.08;25.60;;;;;;;;;;5028012;28;20477;-49
2021/10/11 00:05:44;;;;;;;52.47;28.90;;;;;;;;;;5028218;28;20018;-53
2021/10/11 00:08:10;;;;;;;47.38;26.00;;;;;;;;;;5026528;28;20044;-51
2021/10/11 00:10:36;;;;;;;37.70;20.92;;;;;;;;;;5037866;28;20031;-52
2021/10/11 00:13:02;;;;;;;57.13;33.85;;;;;;;;;;5055597;28;20495;-51
2021/10/11 00:15:28;;;;;;;79.22;43.20;;;;;;;;;;5055698;28;20033;-51
2021/10/11 00:17:55;;;;;;;45.67;28.38;;;;;;;;;;5055267;28;20029;-51
2021/10/11 00:20:21;;;;;;;29.02;16.38;;;;;;;;;;5055350;28;20025;-51
2021/10/11 00:22:48;;;;;;;39.80;23.15;;;;;;;;;;5055668;28;20021;-50
2021/10/11 00:25:14;;;;;;;32.63;18.27;;;;;;;;;;5055378;28;20075;-51
2021/10/11 00:27:40;;;;;;;22.52;13.57;;;;;;;;;;5055154;28;20060;-50
2021/10/11 00:30:09;;;;;;;66.22;39.13;;;;;;;;;;5055321;28;20024;-50
2021/10/11 00:32:35;;;;;;;32.30;19.33;;;;;;;;;;5054787;28;20021;-50
2021/10/11 00:35:04;;;;;;;51.28;29.92;;;;;;;;;;5054627;28;20040;-50
2021/10/11 00:37:32;;;;;;;26.35;16.95;;;;;;;;;;5055392;28;20385;-51
2021/10/11 00:39:59;;;;;;;38.53;21.17;;;;;;;;;;5055124;28;20086;-50
2021/10/11 00:42:25;;;;;;;41.80;21.27;;;;;;;;;;5051975;28;20021;-50
2021/10/11 00:44:51;;;;;;;59.85;34.53;;;;;;;;;;5055354;28;20021;-51
2021/10/11 00:47:17;;;;;;;47.15;28.15;;;;;;;;;;5053815;28;20079;-51
2021/10/11 00:49:43;;;;;;;52.88;29.95;;;;;;;;;;5054723;28;20035;-52
2021/10/11 00:52:09;;;;;;;45.85;28.80;;;;;;;;;;5055547;28;20025;-51
2021/10/11 00:54:36;;;;;;;41.97;23.05;;;;;;;;;;5055133;28;20069;-50
2021/10/11 00:57:02;;;;;;;50.42;29.70;;;;;;;;;;5055106;28;20481;-51
2021/10/11 00:59:28;;;;;;;38.97;23.15;;;;;;;;;;5055162;28;20029;-50
2021/10/11 01:01:54;;;;;;;28.63;18.05;;;;;;;;;;5055068;28;20032;-49
2021/10/11 01:04:20;;;;;;;32.95;22.10;;;;;;;;;;5054858;28;20473;-51
2021/10/11 01:06:46;;;;;;;45.45;26.70;;;;;;;;;;5055024;28;20029;-50
2021/10/11 01:09:13;;;;;;;51.42;27.42;;;;;;;;;;5054323;28;20029;-51
2021/10/11 01:11:40;;;;;;;50.08;29.20;;;;;;;;;;5054772;28;20095;-51
2021/10/11 01:14:07;;;;;;;36.10;20.13;;;;;;;;;;5054791;28;20029;-51
2021/10/11 01:16:33;;;;;;;33.88;18.48;;;;;;;;;;5054869;28;20361;-51
2021/10/11 01:18:59;;;;;;;24.92;14.73;;;;;;;;;;5054747;28;20025;-51
2021/10/11 01:21:26;;;;;;;54.15;31.55;;;;;;;;;;5054711;28;20025;-51
2021/10/11 01:23:53;;;;;;;44.10;26.35;;;;;;;;;;5054486;28;20048;-51
2021/10/11 01:26:22;;;;;;;58.35;33.17;;;;;;;;;;5054743;28;20146;-51
2021/10/11 01:28:48;;;;;;;18.85;11.88;;;;;;;;;;5054616;28;20017;-51
2021/10/11 01:31:15;;;;;;;18.98;12.68;;;;;;;;;;5054580;28;20067;-50
2021/10/11 01:33:43;;;;;;;35.42;17.42;;;;;;;;;;5054294;28;20458;-50
2021/10/11 01:36:09;;;;;;;43.33;24.83;;;;;;;;;;5054353;28;20036;-52
2021/10/11 01:38:35;;;;;;;47.17;25.30;;;;;;;;;;5054471;28;20115;-51
2021/10/11 01:41:01;;;;;;;38.05;19.95;;;;;;;;;;5054433;28;20481;-51
2021/10/11 01:43:27;;;;;;;30.98;20.10;;;;;;;;;;5054314;28;20357;-51
2021/10/11 01:45:53;;;;;;;35.72;23.20;;;;;;;;;;5054147;28;20025;-51
2021/10/11 01:48:19;;;;;;;52.28;27.70;;;;;;;;;;5054063;28;20556;-51
2021/10/11 01:50:46;;;;;;;61.38;34.88;;;;;;;;;;5054130;28;20028;-51
2021/10/11 01:53:12;;;;;;;43.03;24.65;;;;;;;;;;5053838;28;20032;-51
2021/10/11 01:55:38;;;;;;;43.45;26.83;;;;;;;;;;5054082;28;20040;-51
2021/10/11 01:58:04;;;;;;;39.65;24.83;;;;;;;;;;5053795;28;20029;-51
2021/10/11 02:00:30;;;;;;;45.88;29.27;;;;;;;;;;5054012;28;20032;-51
2021/10/11 02:02:56;;;;;;;49.28;28.67;;;;;;;;;;5053897;28;20032;-50
2021/10/11 02:05:22;;;;;;;33.05;20.95;;;;;;;;;;5053819;28;20515;-50
2021/10/11 02:07:53;;;;;;;58.85;35.33;;;;;;;;;;5053988;28;20029;-52
2021/10/11 02:10:19;;;;;;;51.88;30.27;;;;;;;;;;5053723;28;20162;-51
2021/10/11 02:12:45;;;;;;;42.60;26.98;;;;;;;;;;5053669;28;20029;-50
2021/10/11 02:15:13;;;;;;;38.38;24.17;;;;;;;;;;5053692;28;20104;-52
2021/10/11 02:17:39;;;;;;;34.28;20.08;;;;;;;;;;5053835;28;20031;-51
2021/10/11 02:20:08;;;;;;;31.00;18.50;;;;;;;;;;5052883;28;20558;-51
2021/10/11 02:22:34;;;;;;;53.78;31.80;;;;;;;;;;5053766;28;20142;-51
2021/10/11 02:25:01;;;;;;;48.25;29.75;;;;;;;;;;5053515;28;20120;-52
2021/10/11 02:27:27;;;;;;;37.15;21.38;;;;;;;;;;5053561;28;20086;-52
2021/10/11 02:29:53;;;;;;;29.58;19.35;;;;;;;;;;5053724;28;20069;-51
2021/10/11 02:32:19;;;;;;;28.73;17.00;;;;;;;;;;5053595;28;20025;-52
2021/10/11 02:34:45;;;;;;;31.23;19.05;;;;;;;;;;5053340;28;20420;-51
2021/10/11 02:37:11;;;;;;;47.70;29.45;;;;;;;;;;5053556;28;20025;-52
2021/10/11 02:39:37;;;;;;;34.15;17.40;;;;;;;;;;5054223;28;20400;-53
2021/10/11 02:42:03;;;;;;;38.63;22.35;;;;;;;;;;5053464;28;20021;-54
2021/10/11 02:44:29;;;;;;;37.85;23.23;;;;;;;;;;5053455;28;20469;-51
2021/10/11 02:46:56;;;;;;;30.35;15.93;;;;;;;;;;5053275;28;20124;-51
2021/10/11 02:49:22;;;;;;;31.13;15.23;;;;;;;;;;5053178;28;20025;-50
2021/10/11 02:51:48;;;;;;;38.50;25.48;;;;;;;;;;5053518;28;20102;-51
2021/10/11 02:54:17;;;;;;;42.95;26.08;;;;;;;;;;5053281;28;20048;-50
2021/10/11 02:56:44;;;;;;;36.28;20.60;;;;;;;;;;5053440;28;20022;-50
2021/10/11 02:59:10;;;;;;;31.30;19.48;;;;;;;;;;5053236;28;20021;-51
2021/10/11 03:01:36;;;;;;;39.25;23.73;;;;;;;;;;5053349;28;20480;-51
2021/10/11 03:04:02;;;;;;;40.38;24.50;;;;;;;;;;5053286;28;20512;-50
2021/10/11 03:06:28;;;;;;;32.22;20.20;;;;;;;;;;5052985;28;20033;-51
2021/10/11 03:08:54;;;;;;;42.03;24.17;;;;;;;;;;5053409;28;20037;-51
2021/10/11 03:11:20;;;;;;;27.63;17.83;;;;;;;;;;5053152;28;20017;-51
2021/10/11 03:13:47;;;;;;;32.22;22.33;;;;;;;;;;5053035;28;20033;-51
2021/10/11 03:16:13;;;;;;;29.65;19.58;;;;;;;;;;5053123;28;20021;-51
2021/10/11 03:18:39;;;;;;;35.63;20.52;;;;;;;;;;5052899;28;20504;-51
2021/10/11 03:21:05;;;;;;;37.00;22.15;;;;;;;;;;5053289;28;20021;-51
2021/10/11 03:23:31;;;;;;;29.42;19.73;;;;;;;;;;5053226;28;20150;-51
2021/10/11 03:25:57;;;;;;;37.38;24.88;;;;;;;;;;5053256;28;20029;-51
2021/10/11 03:28:23;;;;;;;27.75;17.10;;;;;;;;;;5053059;28;20013;-50
2021/10/11 03:30:52;;;;;;;30.30;19.92;;;;;;;;;;5052962;28;20103;-50
2021/10/11 03:33:21;;;;;;;30.90;18.65;;;;;;;;;;5056356;28;20025;-51
2021/10/11 03:35:47;;;;;;;22.45;16.35;;;;;;;;;;5056593;28;20476;-51
2021/10/11 03:38:13;;;;;;;26.83;16.05;;;;;;;;;;5057005;28;20421;-51
2021/10/11 03:40:39;;;;;;;32.45;15.55;;;;;;;;;;5056822;28;20024;-51
2021/10/11 03:43:05;;;;;;;26.27;16.15;;;;;;;;;;5056804;28;20029;-51
2021/10/11 03:45:31;;;;;;;20.75;14.48;;;;;;;;;;5056692;28;20028;-51
2021/10/11 03:47:57;;;;;;;20.65;14.25;;;;;;;;;;5056598;28;20025;-52
2021/10/11 03:50:23;;;;;;;19.52;14.18;;;;;;;;;;5055256;28;20119;-52
2021/10/11 03:52:49;;;;;;;25.17;13.60;;;;;;;;;;5056714;28;20059;-52
2021/10/11 03:55:15;;;;;;;32.10;14.80;;;;;;;;;;5056348;28;20473;-51
2021/10/11 03:57:41;;;;;;;20.17;13.50;;;;;;;;;;5056658;28;20028;-51
2021/10/11 04:00:10;;;;;;;22.50;15.13;;;;;;;;;;5056221;28;20358;-51
2021/10/11 04:02:36;;;;;;;25.33;14.23;;;;;;;;;;5056534;28;20017;-51
2021/10/11 04:05:03;;;;;;;23.58;15.18;;;;;;;;;;5056180;28;20025;-51
2021/10/11 04:07:30;;;;;;;22.98;14.10;;;;;;;;;;5056195;28;20025;-51
2021/10/11 04:09:59;;;;;;;22.55;13.25;;;;;;;;;;5056279;28;20029;-50
2021/10/11 04:12:33;;;;;;;28.58;14.40;;;;;;;;;;5055935;28;20032;-51
2021/10/11 04:14:59;;;;;;;23.23;13.68;;;;;;;;;;5055964;28;20083;-50
2021/10/11 04:17:25;;;;;;;24.35;13.23;;;;;;;;;;5056154;28;20056;-51
2021/10/11 04:19:51;;;;;;;25.92;15.07;;;;;;;;;;5056016;28;20029;-51
2021/10/11 04:22:18;;;;;;;23.65;14.43;;;;;;;;;;5056040;28;20060;-51
2021/10/11 04:24:44;;;;;;;27.73;14.85;;;;;;;;;;5055725;28;20469;-50
2021/10/11 04:27:10;;;;;;;24.13;16.00;;;;;;;;;;5056240;28;20021;-50
2021/10/11 04:29:36;;;;;;;22.13;15.20;;;;;;;;;;5055699;28;20025;-50
2021/10/11 04:32:02;;;;;;;26.20;15.65;;;;;;;;;;5055865;28;20021;-51
2021/10/11 04:34:28;;;;;;;25.35;15.68;;;;;;;;;;5055472;28;20048;-51
2021/10/11 04:36:54;;;;;;;32.40;16.73;;;;;;;;;;5055690;28;20032;-50
2021/10/11 04:39:20;;;;;;;25.35;15.40;;;;;;;;;;5055885;28;20017;-51
2021/10/11 04:41:46;;;;;;;26.63;16.40;;;;;;;;;;5055652;28;20028;-51
2021/10/11 04:44:12;;;;;;;23.40;16.77;;;;;;;;;;5054336;28;20487;-51
2021/10/11 04:46:38;;;;;;;26.27;16.88;;;;;;;;;;5055422;28;20021;-51
2021/10/11 04:49:05;;;;;;;31.85;17.00;;;;;;;;;;5055332;28;20029;-52
2021/10/11 04:51:31;;;;;;;24.55;15.25;;;;;;;;;;5055661;28;20028;-51
2021/10/11 04:53:57;;;;;;;30.42;16.67;;;;;;;;;;5055494;28;20035;-51
2021/10/11 04:56:23;;;;;;;29.50;17.00;;;;;;;;;;5055603;28;20025;-50
2021/10/11 04:58:49;;;;;;;29.90;16.05;;;;;;;;;;5055157;28;20454;-51
2021/10/11 05:01:17;;;;;;;30.17;17.95;;;;;;;;;;5055186;28;20021;-51
2021/10/11 05:03:43;;;;;;;29.67;17.15;;;;;;;;;;5055345;28;20449;-51
2021/10/11 05:06:09;;;;;;;30.02;18.92;;;;;;;;;;5054985;28;20488;-51
2021/10/11 05:08:35;;;;;;;33.15;19.38;;;;;;;;;;5055319;28;20033;-51
2021/10/11 05:11:01;;;;;;;35.08;19.70;;;;;;;;;;5055015;28;20032;-51
2021/10/11 05:13:27;;;;;;;36.95;18.90;;;;;;;;;;5054814;28;20547;-51
2021/10/11 05:15:53;;;;;;;33.22;19.65;;;;;;;;;;5054916;28;20105;-51
2021/10/11 05:18:19;;;;;;;28.13;18.58;;;;;;;;;;5054775;28;20048;-51
2021/10/11 05:20:49;;;;;;;41.78;22.10;;;;;;;;;;5054951;28;20040;-52
2021/10/11 05:23:15;;;;;;;36.95;21.02;;;;;;;;;;5054974;28;20020;-51
2021/10/11 05:25:42;;;;;;;33.05;19.33;;;;;;;;;;5054612;28;20047;-51
2021/10/11 05:28:08;;;;;;;30.92;20.45;;;;;;;;;;5054636;28;20064;-52
2021/10/11 05:30:34;;;;;;;34.30;20.90;;;;;;;;;;5054704;28;20017;-51
2021/10/11 05:33:00;;;;;;;33.95;21.65;;;;;;;;;;5054686;28;20052;-51
2021/10/11 05:35:26;;;;;;;31.15;21.15;;;;;;;;;;5054339;28;20527;-51
2021/10/11 05:37:52;;;;;;;34.28;20.92;;;;;;;;;;5054515;28;20029;-51
2021/10/11 05:40:18;;;;;;;41.63;24.27;;;;;;;;;;5054589;28;20469;-51
2021/10/11 05:42:44;;;;;;;35.60;23.67;;;;;;;;;;5054389;28;20032;-51
2021/10/11 05:45:10;;;;;;;45.88;30.23;;;;;;;;;;5054313;28;20123;-51
2021/10/11 05:47:39;;;;;;;46.55;24.83;;;;;;;;;;5054274;28;20025;-51
2021/10/11 05:50:07;;;;;;;39.42;23.63;;;;;;;;;;5054075;28;20025;-52
2021/10/11 05:52:33;;;;;;;40.22;25.15;;;;;;;;;;5054427;28;20096;-52
2021/10/11 05:54:59;;;;;;;38.38;24.27;;;;;;;;;;5053916;28;20033;-52
2021/10/11 05:57:28;;;;;;;35.28;23.05;;;;;;;;;;5054131;28;20469;-52
2021/10/11 05:59:54;;;;;;;37.80;25.38;;;;;;;;;;5054036;28;20029;-51
2021/10/11 06:02:20;;;;;;;37.72;24.33;;;;;;;;;;5054197;28;20478;-52
2021/10/11 06:04:46;;;;;;;41.90;25.92;;;;;;;;;;5054039;28;20032;-52
2021/10/11 06:07:12;;;;;;;38.05;24.58;;;;;;;;;;5053892;28;20086;-52
2021/10/11 06:09:38;;;;;;;42.47;25.85;;;;;;;;;;5053949;28;20021;-52
2021/10/11 06:12:04;;;;;;;43.28;26.27;;;;;;;;;;5054109;28;20029;-52
2021/10/11 06:14:30;;;;;;;42.65;26.63;;;;;;;;;;5053559;28;20090;-52
2021/10/11 06:16:56;;;;;;;43.15;28.60;;;;;;;;;;5053831;28;20489;-51
2021/10/11 06:19:22;;;;;;;42.10;28.13;;;;;;;;;;5052410;28;20419;-51
2021/10/11 06:21:48;;;;;;;44.97;28.58;;;;;;;;;;5053939;28;20032;-51
2021/10/11 06:24:15;;;;;;;43.83;28.92;;;;;;;;;;5053514;28;20137;-52
2021/10/11 06:26:41;;;;;;;48.85;32.33;;;;;;;;;;5053690;28;20104;-52
2021/10/11 06:29:07;;;;;;;46.85;30.98;;;;;;;;;;5053506;28;20477;-51
2021/10/11 06:31:33;;;;;;;44.15;29.42;;;;;;;;;;5053784;28;20060;-51
2021/10/11 06:33:59;;;;;;;43.13;28.27;;;;;;;;;;5053264;28;20059;-52
2021/10/11 06:36:28;;;;;;;42.88;27.17;;;;;;;;;;5053340;28;20385;-52
2021/10/11 06:38:54;;;;;;;39.65;26.10;;;;;;;;;;5053494;28;20473;-51
2021/10/11 06:41:20;;;;;;;53.75;27.92;;;;;;;;;;5053386;28;20067;-51
2021/10/11 06:43:48;;;;;;;48.45;30.35;;;;;;;;;;5053314;28;20436;-51
2021/10/11 06:46:14;;;;;;;45.42;31.02;;;;;;;;;;5053341;28;20515;-51
2021/10/11 06:48:40;;;;;;;46.25;29.17;;;;;;;;;;5053509;28;20400;-51
2021/10/11 06:51:06;;;;;;;53.92;32.17;;;;;;;;;;5053466;28;20094;-51
2021/10/11 06:53:33;;;;;;;54.25;30.13;;;;;;;;;;5053229;28;20021;-52
2021/10/11 06:55:59;;;;;;;50.83;31.17;;;;;;;;;;5053479;28;20108;-52
2021/10/11 06:58:25;;;;;;;43.80;26.73;;;;;;;;;;5053293;28;20036;-52
2021/10/11 07:00:51;;;;;;;42.35;25.75;;;;;;;;;;5053149;28;20036;-51
2021/10/11 07:03:23;;;;;;;40.78;26.45;;;;;;;;;;5053042;28;20029;-52
2021/10/11 07:05:50;;;;;;;39.92;26.63;;;;;;;;;;5053049;28;20079;-52
2021/10/11 07:08:16;;;;;;;40.13;25.15;;;;;;;;;;5057073;28;20032;-52
2021/10/11 07:10:42;;;;;;;41.20;24.70;;;;;;;;;;5057503;28;20500;-53
2021/10/11 07:13:08;;;;;;;36.20;22.52;;;;;;;;;;5057424;28;20033;-52
2021/10/11 07:15:34;;;;;;;39.63;23.80;;;;;;;;;;5056965;28;20481;-52
2021/10/11 07:18:00;;;;;;;38.10;23.75;;;;;;;;;;5057269;28;20025;-51
2021/10/11 07:20:26;;;;;;;39.25;23.48;;;;;;;;;;5057116;28;20028;-51
2021/10/11 07:22:53;;;;;;;36.00;24.73;;;;;;;;;;5057274;28;20362;-51
2021/10/11 07:25:19;;;;;;;40.15;27.02;;;;;;;;;;5056936;28;20048;-51
2021/10/11 07:27:45;;;;;;;50.03;29.60;;;;;;;;;;5056925;28;20025;-51
2021/10/11 07:30:11;;;;;;;45.33;27.02;;;;;;;;;;5057030;28;20029;-51
2021/10/11 07:32:37;;;;;;;43.42;25.52;;;;;;;;;;5057150;28;20381;-52
2021/10/11 07:35:03;;;;;;;41.20;25.20;;;;;;;;;;5056610;28;20040;-52
2021/10/11 07:37:32;;;;;;;44.45;27.75;;;;;;;;;;5056851;28;20021;-51
2021/10/11 07:39:58;;;;;;;46.00;27.98;;;;;;;;;;5056769;28;20063;-51
2021/10/11 07:42:24;;;;;;;51.15;28.92;;;;;;;;;;5056819;28;20083;-51
2021/10/11 07:44:52;;;;;;;46.28;27.50;;;;;;;;;;5056653;28;20020;-51
2021/10/11 07:47:18;;;;;;;50.47;29.40;;;;;;;;;;5056508;28;20028;-52
2021/10/11 07:49:45;;;;;;;47.25;28.08;;;;;;;;;;5056486;28;20480;-51
2021/10/11 07:52:11;;;;;;;51.25;28.80;;;;;;;;;;5056543;28;20019;-51
2021/10/11 07:54:37;;;;;;;53.88;30.38;;;;;;;;;;5056287;28;20037;-51
2021/10/11 07:57:04;;;;;;;57.67;32.17;;;;;;;;;;5056646;28;20017;-52
2021/10/11 07:59:30;;;;;;;54.60;31.73;;;;;;;;;;5056217;28;20029;-52
2021/10/11 08:01:56;;;;;;;65.57;36.92;;;;;;;;;;5056341;28;20097;-55
2021/10/11 08:04:22;;;;;;;99.75;56.95;;;;;;;;;;5056013;28;20025;-54
2021/10/11 08:06:49;;;;;;;103.47;60.25;;;;;;;;;;5056493;28;20029;-53
2021/10/11 08:09:15;;;;;;;47.95;28.40;;;;;;;;;;5056374;28;20053;-53
2021/10/11 08:11:43;;;;;;;47.50;29.63;;;;;;;;;;5056193;28;20025;-53
2021/10/11 08:14:09;;;;;;;45.67;29.30;;;;;;;;;;5055974;28;20029;-54
2021/10/11 08:16:35;;;;;;;52.45;28.38;;;;;;;;;;5056052;28;20029;-53
2021/10/11 08:19:01;;;;;;;56.40;32.97;;;;;;;;;;5055981;28;20485;-53
2021/10/11 08:21:27;;;;;;;54.92;34.33;;;;;;;;;;5055891;28;20029;-52
2021/10/11 08:23:54;;;;;;;58.65;32.80;;;;;;;;;;5055953;28;20437;-50
2021/10/11 08:26:20;;;;;;;102.00;60.55;;;;;;;;;;5056052;28;20036;-52
2021/10/11 08:28:47;;;;;;;43.40;28.27;;;;;;;;;;5055724;28;20047;-49
2021/10/11 08:31:13;;;;;;;30.77;20.05;;;;;;;;;;5055817;28;20110;-53
2021/10/11 08:33:40;;;;;;;51.47;31.70;;;;;;;;;;5055691;28;20017;-50
2021/10/11 08:36:06;;;;;;;41.90;22.90;;;;;;;;;;5055438;28;20091;-50
2021/10/11 08:38:32;;;;;;;55.80;35.80;;;;;;;;;;5055724;28;20033;-51
2021/10/11 08:40:58;;;;;;;47.28;30.20;;;;;;;;;;5055637;28;20032;-52
2021/10/11 08:43:24;;;;;;;47.25;25.70;;;;;;;;;;5055564;28;20025;-53
2021/10/11 08:45:51;;;;;;;44.00;24.83;;;;;;;;;;5055430;28;20485;-51
2021/10/11 08:48:17;;;;;;;45.13;22.00;;;;;;;;;;5055383;28;20024;-52
2021/10/11 08:50:43;;;;;;;47.25;25.42;;;;;;;;;;5055425;28;20033;-51
2021/10/11 08:53:10;;;;;;;51.83;25.50;;;;;;;;;;5055454;28;20017;-51
2021/10/11 08:55:36;;;;;;;34.25;19.73;;;;;;;;;;5055148;28;20044;-51
2021/10/11 08:58:04;;;;;;;42.47;22.85;;;;;;;;;;5055442;28;20025;-51
2021/10/11 09:00:34;;;;;;;32.50;17.85;;;;;;;;;;5055486;28;20029;-53
2021/10/11 09:03:01;;;;;;;36.28;19.00;;;;;;;;;;5055238;28;20548;-57
2021/10/11 09:05:32;;;;;;;39.05;22.02;;;;;;;;;;5055238;28;20025;-56
2021/10/11 09:08:18;;;;;;;43.08;23.30;;;;;;;;;;5055159;28;20075;-52
2021/10/11 09:10:52;;;;;;;39.10;20.40;;;;;;;;;;5055315;28;20057;-52
2021/10/11 09:13:26;;;;;;;30.05;17.92;;;;;;;;;;5055231;28;20021;-51
2021/10/11 09:16:04;;;;;;;27.63;17.92;;;;;;;;;;5054873;28;20030;-51
2021/10/11 09:18:31;;;;;;;33.10;19.83;;;;;;;;;;5055066;28;20025;-51
2021/10/11 09:20:59;;;;;;;31.00;21.63;;;;;;;;;;5054979;28;20025;-51
2021/10/11 09:23:30;;;;;;;29.58;19.67;;;;;;;;;;5054630;28;20039;-50
2021/10/11 09:25:57;;;;;;;28.38;19.25;;;;;;;;;;5054887;28;20052;-51
2021/10/11 09:28:25;;;;;;;28.90;19.52;;;;;;;;;;5054745;28;20021;-54
2021/10/11 09:30:51;;;;;;;26.75;16.38;;;;;;;;;;5054076;28;20028;-51
2021/10/11 09:33:21;;;;;;;27.23;15.70;;;;;;;;;;5054669;28;20031;-51
2021/10/11 09:35:48;;;;;;;33.47;18.80;;;;;;;;;;5054474;28;20059;-51
2021/10/11 09:38:21;;;;;;;34.80;21.02;;;;;;;;;;5054709;28;20083;-51
2021/10/11 09:40:48;;;;;;;35.03;22.83;;;;;;;;;;5054422;28;20032;-52
2021/10/11 09:43:18;;;;;;;33.55;23.38;;;;;;;;;;5054341;28;20032;-51
2021/10/11 09:45:45;;;;;;;37.70;26.30;;;;;;;;;;5054397;28;20044;-51
2021/10/11 09:48:11;;;;;;;27.27;19.67;;;;;;;;;;5054358;28;20473;-52
2021/10/11 09:50:38;;;;;;;31.58;18.98;;;;;;;;;;5054166;28;20025;-55
2021/10/11 09:53:05;;;;;;;35.60;19.75;;;;;;;;;;5054090;28;20029;-50
2021/10/11 09:55:33;;;;;;;30.80;18.73;;;;;;;;;;5054027;28;20114;-52
2021/10/11 09:57:59;;;;;;;33.13;19.02;;;;;;;;;;5053930;28;20025;-51
2021/10/11 10:00:26;;;;;;;32.25;19.35;;;;;;;;;;5053931;28;20025;-51
2021/10/11 10:02:54;;;;;;;32.47;20.30;;;;;;;;;;5054067;28;20021;-52
2021/10/11 10:05:33;;;;;;;59.13;41.22;;;;;;;;;;5054051;28;20029;-52
2021/10/11 10:08:00;;;;;;;39.55;22.42;;;;;;;;;;5053764;28;20435;-55
2021/10/11 10:10:26;;;;;;;51.17;30.75;;;;;;;;;;5053746;28;20056;-54
2021/10/11 10:12:53;;;;;;;72.60;38.58;;;;;;;;;;5053765;28;20422;-51
2021/10/11 10:15:32;;;;;;;49.05;29.23;;;;;;;;;;5053550;28;20069;-50
2021/10/11 10:18:00;;;;;;;46.13;28.45;;;;;;;;;;5053942;28;20491;-51
2021/10/11 10:20:26;;;;;;;43.63;23.75;;;;;;;;;;5053628;28;20028;-51
2021/10/11 10:22:52;;;;;;;40.60;22.85;;;;;;;;;;5053644;28;20049;-52
2021/10/11 10:25:19;;;;;;;39.75;24.23;;;;;;;;;;5053362;28;20539;-50
2021/10/11 10:27:47;;;;;;;39.88;24.95;;;;;;;;;;5053447;28;20044;-51
2021/10/11 10:30:18;;;;;;;60.78;34.90;;;;;;;;;;5053651;28;20029;-51
2021/10/11 10:32:58;;;;;;;59.65;31.98;;;;;;;;;;5053303;28;20049;-53
2021/10/11 10:35:25;;;;;;;43.13;24.98;;;;;;;;;;5053217;28;20033;-54
2021/10/11 10:37:51;;;;;;;72.78;41.92;;;;;;;;;;5053269;28;20056;-55
2021/10/11 10:40:19;;;;;;;45.85;28.35;;;;;;;;;;5053330;28;20104;-55
2021/10/11 10:42:45;;;;;;;38.72;24.13;;;;;;;;;;5052775;28;20021;-55
2021/10/11 10:45:22;;;;;;;36.40;22.45;;;;;;;;;;5053172;28;20034;-54
2021/10/11 10:47:51;;;;;;;31.25;19.52;;;;;;;;;;5051941;28;20036;-55
2021/10/11 10:50:17;;;;;;;29.98;20.02;;;;;;;;;;5053037;28;20025;-54
2021/10/11 10:52:54;;;;;;;30.25;17.65;;;;;;;;;;5052368;28;20047;-53
2021/10/11 10:55:21;;;;;;;32.45;20.48;;;;;;;;;;5053036;28;20036;-54
2021/10/11 10:57:47;;;;;;;34.85;22.23;;;;;;;;;;5053240;28;20017;-54
2021/10/11 11:00:16;;;;;;;66.72;41.45;;;;;;;;;;5053059;28;20063;-55
2021/10/11 11:02:46;;;;;;;50.72;29.77;;;;;;;;;;5052811;28;20021;-53
2021/10/11 11:05:14;;;;;;;42.42;26.85;;;;;;;;;;5053138;28;20041;-55
2021/10/11 11:07:41;;;;;;;41.35;28.08;;;;;;;;;;5053114;28;20032;-55
2021/10/11 11:10:12;;;;;;;59.33;36.55;;;;;;;;;;5053131;28;20032;-55
2021/10/11 11:12:39;;;;;;;81.05;47.38;;;;;;;;;;5051791;28;20112;-54
2021/10/11 11:15:06;;;;;;;55.05;33.78;;;;;;;;;;5052996;28;20044;-54
2021/10/11 11:17:40;;;;;;;46.63;28.35;;;;;;;;;;5053081;28;20377;-54
2021/10/11 11:20:15;;;;;;;46.25;29.90;;;;;;;;;;5053054;28;20104;-53
2021/10/11 11:22:43;;;;;;;75.45;44.60;;;;;;;;;;5052942;28;20355;-53
2021/10/11 11:25:10;;;;;;;65.55;37.35;;;;;;;;;;5052808;28;20080;-54
2021/10/11 11:27:37;;;;;;;51.92;31.27;;;;;;;;;;5052909;28;20024;-54
2021/10/11 11:30:10;;;;;;;48.10;28.17;;;;;;;;;;5052978;28;20045;-55
2021/10/11 11:32:46;;;;;;;38.55;22.50;;;;;;;;;;5051645;28;20021;-51
2021/10/11 11:35:17;;;;;;;42.92;23.25;;;;;;;;;;5052926;28;20072;-49
2021/10/11 11:37:47;;;;;;;27.27;17.23;;;;;;;;;;5053024;28;20031;-49
2021/10/11 11:40:14;;;;;;;26.85;17.60;;;;;;;;;;5052993;28;20033;-48
2021/10/11 11:42:41;;;;;;;27.20;17.60;;;;;;;;;;5052775;28;20100;-48
2021/10/11 11:45:07;;;;;;;21.27;14.88;;;;;;;;;;5052504;28;20032;-49
2021/10/11 11:47:33;;;;;;;24.95;16.20;;;;;;;;;;5052752;28;20025;-49
2021/10/11 11:49:59;;;;;;;25.02;17.30;;;;;;;;;;5052750;28;20017;-50
2021/10/11 11:52:32;;;;;;;36.70;23.70;;;;;;;;;;5053151;28;20021;-48
2021/10/11 11:54:58;;;;;;;28.33;19.73;;;;;;;;;;5056464;28;20029;-49
2021/10/11 11:57:24;;;;;;;37.20;24.38;;;;;;;;;;5056391;28;20056;-48
2021/10/11 11:59:53;;;;;;;36.22;24.67;;;;;;;;;;5056274;28;20018;-49
2021/10/11 12:02:19;;;;;;;38.90;26.58;;;;;;;;;;5056060;28;20029;-48
2021/10/11 12:04:46;;;;;;;32.72;20.83;;;;;;;;;;5056098;28;20025;-48
2021/10/11 12:07:13;;;;;;;28.10;17.58;;;;;;;;;;5055795;28;20059;-48
2021/10/11 12:09:39;;;;;;;23.02;15.43;;;;;;;;;;5055723;28;20017;-49
2021/10/11 12:12:06;;;;;;;51.42;32.80;;;;;;;;;;5055714;28;20366;-49
2021/10/11 12:14:33;;;;;;;24.55;16.70;;;;;;;;;;5055270;28;20043;-48
2021/10/11 12:17:09;;;;;;;41.33;26.20;;;;;;;;;;5055508;28;20079;-48
2021/10/11 12:19:39;;;;;;;56.25;33.20;;;;;;;;;;5055386;28;20096;-49
2021/10/11 12:22:05;;;;;;;57.75;29.92;;;;;;;;;;5055488;28;20028;-48
2021/10/11 12:24:32;;;;;;;80.20;46.28;;;;;;;;;;5055263;28;20052;-47
2021/10/11 12:27:02;;;;;;;48.58;30.88;;;;;;;;;;5055014;28;20025;-47
2021/10/11 12:29:30;;;;;;;96.38;51.63;;;;;;;;;;5054814;28;20048;-49
2021/10/11 12:31:58;;;;;;;131.05;72.35;;;;;;;;;;5052575;28;20380;-47
2021/10/11 12:34:31;;;;;;;124.10;75.50;;;;;;;;;;5051543;28;20556;-48
2021/10/11 12:36:58;;;;;;;181.60;101.93;;;;;;;;;;5028456;28;20041;-47
2021/10/11 12:39:34;;;;;;;146.57;91.15;;;;;;;;;;5028278;28;20036;-47
2021/10/11 12:42:03;;;;;;;119.47;71.35;;;;;;;;;;5028426;28;20022;-47
2021/10/11 12:44:34;;;;;;;109.03;70.22;;;;;;;;;;5028403;28;20346;-47
2021/10/11 12:47:00;;;;;;;111.78;66.38;;;;;;;;;;5028473;28;20090;-48
2021/10/11 12:49:37;;;;;;;67.40;43.10;;;;;;;;;;5028051;28;20128;-47
2021/10/11 12:52:09;;;;;;;64.78;38.92;;;;;;;;;;5028060;28;20032;-47
2021/10/11 12:54:37;;;;;;;104.30;64.90;;;;;;;;;;5028207;28;21352;-46
2021/10/11 12:57:03;;;;;;;84.75;50.63;;;;;;;;;;5028240;28;20037;-47
2021/10/11 12:59:30;;;;;;;59.75;33.83;;;;;;;;;;5027963;28;20456;-47
2021/10/11 13:01:57;;;;;;;68.85;39.85;;;;;;;;;;5028223;28;20032;-47
2021/10/11 13:04:26;;;;;;;74.80;42.88;;;;;;;;;;5026206;28;20068;-47
2021/10/11 13:06:53;;;;;;;96.40;56.92;;;;;;;;;;5027955;28;20386;-47
2021/10/11 13:09:20;;;;;;;87.13;51.20;;;;;;;;;;5027382;28;20033;-49
2021/10/11 13:11:46;;;;;;;66.07;42.17;;;;;;;;;;5027928;28;20029;-47
2021/10/11 13:14:13;;;;;;;87.40;50.03;;;;;;;;;;5027752;28;20021;-48
2021/10/11 13:16:39;;;;;;;75.88;43.33;;;;;;;;;;5027522;28;20093;-47
2021/10/11 13:19:05;;;;;;;65.68;39.25;;;;;;;;;;5028126;28;20086;-47
2021/10/11 13:21:32;;;;;;;92.05;49.65;;;;;;;;;;5028141;28;20033;-47
2021/10/11 13:23:58;;;;;;;61.92;37.78;;;;;;;;;;5027441;28;20037;-47
2021/10/11 13:26:24;;;;;;;90.78;51.45;;;;;;;;;;5027595;28;20025;-48
2021/10/11 14:28:59;;;;;;;86.47;50.97;;;;;;;;;;5026622;28;20063;-48
2021/10/11 14:31:29;;;;;;;101.90;59.90;;;;;;;;;;5026696;28;20017;-48
2021/10/11 15:59:09;;;;;;;76.72;49.78;;;;;;;;;;5029348;28;20036;-48
2021/10/11 16:01:49;;;;;;;86.82;53.88;;;;;;;;;;5029185;28;21504;-49
2021/10/11 16:04:15;;;;;;;82.35;51.28;;;;;;;;;;5029251;28;20546;-48
2021/10/11 16:06:42;;;;;;;101.13;64.50;;;;;;;;;;5029105;28;20099;-49
2021/10/11 16:09:08;;;;;;;105.68;68.20;;;;;;;;;;5029496;28;20021;-49
2021/10/11 16:11:35;;;;;;;116.38;73.13;;;;;;;;;;5029254;28;20541;-48
2021/10/11 16:14:01;;;;;;;103.65;66.50;;;;;;;;;;5029204;28;20017;-51
2021/10/11 16:16:27;;;;;;;117.35;74.00;;;;;;;;;;5028723;28;20084;-48
2021/10/11 16:18:54;;;;;;;117.30;75.60;;;;;;;;;;5029218;28;20054;-48
2021/10/11 16:21:20;;;;;;;79.10;51.03;;;;;;;;;;5029008;28;20132;-47
2021/10/11 16:23:46;;;;;;;126.55;77.65;;;;;;;;;;5028675;28;20466;-48
2021/10/11 16:26:13;;;;;;;198.27;117.45;;;;;;;;;;5028796;28;20025;-48
2021/10/11 16:28:39;;;;;;;139.90;84.10;;;;;;;;;;5028496;28;20021;-48
2021/10/11 16:31:07;;;;;;;93.60;57.00;;;;;;;;;;5029076;28;20020;-48
2021/10/11 16:33:34;;;;;;;146.10;85.78;;;;;;;;;;5028641;28;20021;-48
2021/10/11 16:36:00;;;;;;;148.90;88.72;;;;;;;;;;5028280;28;20033;-48
2021/10/11 16:38:26;;;;;;;85.72;51.22;;;;;;;;;;5028180;28;20037;-49
2021/10/11 16:40:55;;;;;;;74.90;45.50;;;;;;;;;;5027964;28;20155;-48